Time;durP1;ratioP1;P1;durP2;ratioP2;P2;SDS_P1;SDS_P2;PMS_P1;PMS_P2;Temp;Humidity;BMP_temperature;BMP_pressure;BME280_temperature;BME280_humidity;BME280_pressure;Samples;Min_cycle;Max_cycle;Signal;HPM_P1;HPM_P2
2023/05/10 00:01:38;;;;;;;10.70;9.57;;;13.80;99.90;;;;;;4981628;28;90893;-34
2023/05/10 00:04:03;;;;;;;10.23;8.95;;;13.80;99.90;;;;;;4988498;28;90660;-36
2023/05/10 00:06:30;;;;;;;9.82;8.35;;;13.70;99.90;;;;;;4980603;28;90327;-32
2023/05/10 00:08:55;;;;;;;9.88;6.90;;;13.60;99.90;;;;;;4979822;28;87573;-31
2023/05/10 00:11:21;;;;;;;9.30;7.85;;;13.60;99.90;;;;;;4980249;28;90331;-34
2023/05/10 00:13:47;;;;;;;8.63;7.03;;;13.50;99.90;;;;;;4989073;28;89528;-35
2023/05/10 00:16:13;;;;;;;9.10;8.18;;;13.50;99.90;;;;;;4982845;28;89426;-36
2023/05/10 00:18:39;;;;;;;9.73;8.25;;;13.50;99.90;;;;;;4988568;28;89532;-34
2023/05/10 00:21:05;;;;;;;10.02;9.02;;;13.50;99.90;;;;;;4991274;28;90433;-32
2023/05/10 00:23:30;;;;;;;11.38;8.70;;;13.50;99.90;;;;;;4989638;28;90273;-33
2023/05/10 00:25:56;;;;;;;11.75;10.10;;;13.50;99.90;;;;;;4990354;28;89688;-34
2023/05/10 00:28:22;;;;;;;12.50;9.55;;;13.40;99.90;;;;;;4989538;28;90109;-31
2023/05/10 00:30:47;;;;;;;11.77;9.23;;;13.40;99.90;;;;;;4989999;28;90283;-35
2023/05/10 00:33:13;;;;;;;11.50;8.95;;;13.40;99.90;;;;;;4995171;28;90744;-36
2023/05/10 00:35:39;;;;;;;10.95;9.45;;;13.30;99.90;;;;;;4991124;28;89143;-34
2023/05/10 00:38:04;;;;;;;9.38;8.38;;;13.30;99.90;;;;;;4995834;28;89248;-30
2023/05/10 00:40:30;;;;;;;10.20;9.20;;;13.30;99.90;;;;;;4998510;28;89224;-32
2023/05/10 00:42:56;;;;;;;11.32;9.55;;;13.30;99.90;;;;;;4998097;28;89229;-31
2023/05/10 00:45:23;;;;;;;10.10;8.60;;;13.20;99.90;;;;;;4990244;28;88358;-31
2023/05/10 00:47:49;;;;;;;10.50;9.27;;;13.20;99.90;;;;;;4992108;28;90151;-31
2023/05/10 00:50:15;;;;;;;10.70;9.57;;;13.20;99.90;;;;;;4988973;28;90037;-32
2023/05/10 00:52:42;;;;;;;15.52;9.07;;;13.20;99.90;;;;;;4991569;28;90575;-36
2023/05/10 00:55:11;;;;;;;11.50;10.30;;;13.20;99.90;;;;;;4988004;28;90592;-33
2023/05/10 00:57:36;;;;;;;10.35;9.18;;;13.20;99.90;;;;;;4990385;28;89117;-31
2023/05/10 01:00:03;;;;;;;11.23;9.02;;;13.20;99.90;;;;;;4990247;28;89947;-33
2023/05/10 01:02:29;;;;;;;15.45;10.20;;;13.10;99.90;;;;;;4996625;28;91921;-34
2023/05/10 01:04:55;;;;;;;11.60;9.73;;;13.10;99.90;;;;;;4996515;28;91182;-35
2023/05/10 01:07:20;;;;;;;12.13;9.70;;;13.10;99.90;;;;;;4998105;28;89051;-31
2023/05/10 01:09:46;;;;;;;11.80;10.57;;;13.00;99.90;;;;;;4998283;28;90294;-31
2023/05/10 01:12:12;;;;;;;9.25;7.15;;;13.00;99.90;;;;;;4996353;28;90067;-31
2023/05/10 01:14:38;;;;;;;12.02;9.30;;;13.00;99.90;;;;;;4998011;28;90913;-32
2023/05/10 01:17:05;;;;;;;8.98;7.88;;;13.00;99.90;;;;;;4996991;28;89977;-32
2023/05/10 01:19:34;;;;;;;10.10;8.90;;;13.00;99.90;;;;;;4997996;28;89907;-33
2023/05/10 01:22:34;;;;;;;11.18;8.27;;;13.00;99.90;;;;;;4997618;28;87921;-34
2023/05/10 01:25:24;;;;;;;8.35;7.43;;;13.00;99.90;;;;;;4993503;28;90201;-37
2023/05/10 01:27:58;;;;;;;8.55;7.70;;;13.00;99.90;;;;;;4998328;28;90043;-31
2023/05/10 01:31:17;;;;;;;9.02;8.00;;;13.00;99.90;;;;;;4990359;28;90380;-33
2023/05/10 01:34:07;;;;;;;10.38;8.60;;;13.00;99.90;;;;;;4986570;28;89870;-35
2023/05/10 01:36:37;;;;;;;8.40;7.28;;;12.90;99.90;;;;;;4997632;28;89965;-33
2023/05/10 01:39:14;;;;;;;8.90;7.20;;;12.90;99.90;;;;;;5001271;28;89801;-33
2023/05/10 01:41:56;;;;;;;10.40;8.48;;;12.80;99.90;;;;;;5001270;28;91900;-32
2023/05/10 01:44:34;;;;;;;8.52;7.55;;;12.90;99.90;;;;;;4995863;28;92529;-30
2023/05/10 01:47:06;;;;;;;;;;;12.90;99.90;;;;;;5001678;28;90261;-31
2023/05/10 01:49:39;;;;;;;11.30;7.15;;;12.90;99.90;;;;;;5002068;28;88760;-32
2023/05/10 01:52:12;;;;;;;9.90;8.15;;;12.80;99.90;;;;;;5000294;28;90350;-35
2023/05/10 01:54:49;;;;;;;12.38;10.48;;;12.80;99.90;;;;;;5001146;28;89319;-32
2023/05/10 01:57:18;;;;;;;8.80;7.55;;;12.80;99.90;;;;;;4999870;28;89518;-33
2023/05/10 01:59:47;;;;;;;9.80;8.70;;;12.80;99.90;;;;;;5000922;28;89014;-32
2023/05/10 02:02:14;;;;;;;15.55;8.82;;;12.80;99.90;;;;;;4996377;28;90634;-36
2023/05/10 02:04:42;;;;;;;8.40;7.25;;;12.80;99.90;;;;;;5001005;28;89732;-32
2023/05/10 02:07:08;;;;;;;11.13;9.43;;;12.80;99.90;;;;;;5000305;28;89257;-34
2023/05/10 02:09:34;;;;;;;9.55;7.20;;;12.80;99.90;;;;;;4999474;28;90472;-34
2023/05/10 02:12:03;;;;;;;8.43;7.25;;;12.80;99.90;;;;;;5000194;28;90670;-36
2023/05/10 02:14:34;;;;;;;10.43;8.25;;;12.80;99.90;;;;;;5000070;28;90629;-33
2023/05/10 02:17:01;;;;;;;9.15;7.55;;;12.80;99.90;;;;;;5000343;28;89493;-33
2023/05/10 02:19:29;;;;;;;7.65;6.65;;;12.70;99.90;;;;;;5000360;28;88522;-33
2023/05/10 02:21:57;;;;;;;9.45;7.78;;;12.70;99.90;;;;;;5000498;28;91981;-33
2023/05/10 02:24:24;;;;;;;8.63;7.70;;;12.70;99.90;;;;;;4999441;28;89893;-35
2023/05/10 02:26:53;;;;;;;8.45;7.60;;;12.80;99.90;;;;;;5000594;28;89902;-32
2023/05/10 02:29:19;;;;;;;12.30;8.02;;;12.80;99.90;;;;;;5000098;28;89188;-35
2023/05/10 02:31:45;;;;;;;10.63;8.35;;;12.70;99.90;;;;;;5000781;28;90447;-33
2023/05/10 02:34:12;;;;;;;7.22;6.25;;;12.70;99.90;;;;;;4998931;28;90247;-34
2023/05/10 02:36:39;;;;;;;10.75;8.30;;;12.60;99.90;;;;;;5000584;28;89328;-34
2023/05/10 02:39:09;;;;;;;10.20;7.28;;;12.60;99.90;;;;;;5000214;28;89245;-31
2023/05/10 02:41:36;;;;;;;10.10;7.07;;;12.70;99.90;;;;;;5000355;28;89665;-32
2023/05/10 02:44:03;;;;;;;10.48;7.70;;;12.70;99.90;;;;;;4999615;28;89548;-32
2023/05/10 02:46:29;;;;;;;16.17;7.57;;;12.60;99.90;;;;;;4998793;28;89135;-33
2023/05/10 02:48:55;;;;;;;9.90;8.02;;;12.70;99.90;;;;;;4999525;28;89503;-34
2023/05/10 02:51:31;;;;;;;8.25;6.47;;;12.70;99.90;;;;;;4999311;28;90188;-33
2023/05/10 02:54:00;;;;;;;11.27;7.32;;;12.60;99.90;;;;;;4999128;28;89312;-36
2023/05/10 02:56:34;;;;;;;7.95;7.13;;;12.60;99.90;;;;;;4999913;28;89496;-32
2023/05/10 02:58:59;;;;;;;9.65;7.32;;;12.60;99.90;;;;;;4994396;28;89326;-31
2023/05/10 03:01:25;;;;;;;12.38;7.03;;;12.70;99.90;;;;;;4999137;28;90397;-31
2023/05/10 03:03:51;;;;;;;10.35;7.18;;;12.60;99.90;;;;;;4998990;28;89857;-32
2023/05/10 03:06:16;;;;;;;7.53;6.38;;;12.60;99.90;;;;;;4998893;28;89107;-31
2023/05/10 03:08:44;;;;;;;7.75;7.05;;;12.60;99.90;;;;;;5000018;28;87607;-35
2023/05/10 03:11:22;;;;;;;9.97;7.03;;;12.60;99.90;;;;;;4997153;28;89787;-33
2023/05/10 03:14:06;;;;;;;7.80;7.03;;;12.60;99.90;;;;;;4999272;28;91021;-35
2023/05/10 03:16:46;;;;;;;7.32;6.40;;;12.60;99.90;;;;;;4999970;28;89616;-31
2023/05/10 03:19:19;;;;;;;7.80;6.40;;;12.60;99.90;;;;;;4993091;28;89136;-34
2023/05/10 03:21:50;;;;;;;11.02;7.50;;;12.60;99.90;;;;;;4999574;28;90292;-33
2023/05/10 03:24:18;;;;;;;8.98;8.05;;;12.60;99.90;;;;;;4998631;28;90964;-32
2023/05/10 03:26:45;;;;;;;10.00;7.00;;;12.50;99.90;;;;;;4998804;28;90569;-32
2023/05/10 03:29:13;;;;;;;11.95;8.10;;;12.50;99.90;;;;;;4998608;28;88369;-32
2023/05/10 03:31:39;;;;;;;;;;;12.50;99.90;;;;;;4999473;28;90342;-31
2023/05/10 03:34:06;;;;;;;15.27;7.38;;;12.50;99.90;;;;;;5001103;28;89565;-31
2023/05/10 03:36:31;;;;;;;10.95;8.43;;;12.50;99.90;;;;;;4997135;28;90057;-33
2023/05/10 03:38:57;;;;;;;7.85;6.63;;;12.50;99.90;;;;;;4999208;28;88126;-34
2023/05/10 03:41:23;;;;;;;10.20;7.03;;;12.50;99.90;;;;;;4998146;28;90282;-34
2023/05/10 03:43:48;;;;;;;8.77;7.20;;;12.50;99.90;;;;;;4999232;28;89558;-34
2023/05/10 03:46:14;;;;;;;10.00;7.97;;;12.50;99.90;;;;;;4998798;28;89687;-31
2023/05/10 03:48:40;;;;;;;10.57;8.20;;;12.50;99.90;;;;;;4997974;28;89204;-32
2023/05/10 03:51:05;;;;;;;8.80;7.32;;;12.50;99.90;;;;;;4998955;28;90076;-32
2023/05/10 03:53:31;;;;;;;9.30;6.63;;;12.50;99.90;;;;;;4997853;28;90733;-32
2023/05/10 03:55:56;;;;;;;8.43;6.43;;;12.50;99.90;;;;;;4998659;28;89446;-32
2023/05/10 03:58:22;;;;;;;8.18;6.65;;;12.50;99.90;;;;;;4997951;28;88857;-33
2023/05/10 04:00:48;;;;;;;9.80;6.75;;;12.50;99.90;;;;;;4994281;28;90173;-34
2023/05/10 04:03:14;;;;;;;8.35;7.03;;;12.50;99.90;;;;;;4985974;28;89642;-32
2023/05/10 04:05:40;;;;;;;8.27;7.03;;;12.50;99.90;;;;;;4986108;28;89829;-31
2023/05/10 04:08:06;;;;;;;15.05;8.05;;;12.40;99.90;;;;;;4987057;28;89288;-35
2023/05/10 04:10:32;;;;;;;8.05;6.85;;;12.40;99.90;;;;;;5021837;22;92591;-31
2023/05/10 04:12:58;;;;;;;8.88;6.68;;;12.50;99.90;;;;;;4977916;28;90595;-36
2023/05/10 04:15:23;;;;;;;8.07;6.80;;;12.50;99.90;;;;;;4980445;28;90790;-34
2023/05/10 04:17:49;;;;;;;9.48;6.85;;;12.50;99.90;;;;;;4974405;28;89371;-34
2023/05/10 04:20:14;;;;;;;7.15;6.45;;;12.40;99.90;;;;;;4982249;28;90396;-34
2023/05/10 04:22:40;;;;;;;7.22;6.32;;;12.40;99.90;;;;;;4968816;28;89699;-33
2023/05/10 04:25:07;;;;;;;10.43;5.65;;;12.40;99.90;;;;;;4959268;28;89434;-36
2023/05/10 04:27:32;;;;;;;7.35;5.80;;;12.40;99.90;;;;;;4959416;28;88591;-31
2023/05/10 04:29:58;;;;;;;7.97;6.00;;;12.40;99.90;;;;;;4989890;28;89407;-32
2023/05/10 04:32:24;;;;;;;6.63;5.78;;;12.40;99.90;;;;;;4997265;28;89665;-33
2023/05/10 04:34:51;;;;;;;9.95;5.80;;;12.40;99.90;;;;;;4995954;28;90265;-31
2023/05/10 04:37:16;;;;;;;16.15;5.78;;;12.40;99.90;;;;;;4994759;28;90739;-34
2023/05/10 04:39:42;;;;;;;6.43;5.78;;;12.40;99.90;;;;;;4983508;28;90307;-32
2023/05/10 04:42:08;;;;;;;5.07;4.57;;;12.40;99.90;;;;;;4997089;28;89612;-31
2023/05/10 04:44:34;;;;;;;8.85;5.75;;;12.40;99.90;;;;;;4997730;28;89563;-33
2023/05/10 04:46:59;;;;;;;6.32;5.40;;;12.40;99.90;;;;;;4986973;28;88018;-32
2023/05/10 04:49:25;;;;;;;11.52;7.10;;;12.40;99.90;;;;;;4964804;28;90316;-34
2023/05/10 04:51:51;;;;;;;8.40;6.28;;;12.40;99.90;;;;;;4967786;28;89400;-33
2023/05/10 04:54:16;;;;;;;7.47;6.05;;;12.30;99.90;;;;;;4959025;28;88455;-31
2023/05/10 04:56:42;;;;;;;9.25;7.07;;;12.40;99.90;;;;;;4961118;28;88601;-32
2023/05/10 04:59:07;;;;;;;7.55;6.70;;;12.40;99.90;;;;;;4960761;28;90951;-31
2023/05/10 05:01:33;;;;;;;7.95;6.30;;;12.40;99.90;;;;;;4959769;28;91258;-30
2023/05/10 05:03:59;;;;;;;9.50;6.07;;;12.40;99.90;;;;;;4971091;28;91011;-34
2023/05/10 05:06:25;;;;;;;8.02;7.20;;;12.40;99.90;;;;;;4967723;28;90064;-31
2023/05/10 05:08:51;;;;;;;6.75;5.45;;;12.40;99.90;;;;;;4961474;28;89018;-35
2023/05/10 05:11:20;;;;;;;8.10;6.40;;;12.40;99.90;;;;;;4963072;28;90071;-33
2023/05/10 05:13:46;;;;;;;6.80;6.10;;;12.40;99.90;;;;;;4963152;28;89389;-32
2023/05/10 05:16:12;;;;;;;5.57;4.88;;;12.40;99.90;;;;;;4962749;28;87663;-35
2023/05/10 05:18:38;;;;;;;6.70;5.45;;;12.40;99.90;;;;;;4976169;28;91100;-32
2023/05/10 05:21:12;;;;;;;8.20;5.78;;;12.40;99.90;;;;;;4970696;28;89566;-30
2023/05/10 05:23:38;;;;;;;8.25;6.05;;;12.40;99.90;;;;;;4981339;28;89695;-33
2023/05/10 05:26:04;;;;;;;7.50;6.07;;;12.40;99.90;;;;;;4964307;28;89570;-32
2023/05/10 05:28:32;;;;;;;10.30;6.57;;;12.40;99.90;;;;;;4963474;28;90428;-33
2023/05/10 05:30:58;;;;;;;7.50;6.63;;;12.40;99.90;;;;;;4966192;28;89844;-31
2023/05/10 05:33:23;;;;;;;8.10;6.05;;;12.40;99.90;;;;;;4964386;28;89810;-31
2023/05/10 05:35:50;;;;;;;8.20;6.05;;;12.40;99.90;;;;;;4969012;28;89776;-34
2023/05/10 05:38:17;;;;;;;9.63;6.55;;;12.30;99.90;;;;;;4964613;28;89598;-31
2023/05/10 05:40:42;;;;;;;9.50;7.88;;;12.40;99.90;;;;;;4977537;28;90019;-35
2023/05/10 05:43:08;;;;;;;8.85;6.93;;;12.40;99.90;;;;;;4963957;28;88742;-35
2023/05/10 05:45:34;;;;;;;9.52;6.78;;;12.40;99.90;;;;;;4994300;28;89411;-31
2023/05/10 05:47:59;;;;;;;9.98;6.93;;;12.50;99.90;;;;;;5001234;28;90417;-33
2023/05/10 05:50:25;;;;;;;14.60;8.73;;;12.50;99.90;;;;;;4985771;28;92638;-32
2023/05/10 05:52:51;;;;;;;8.32;6.18;;;12.50;99.90;;;;;;5000639;28;89656;-32
2023/05/10 05:55:16;;;;;;;8.77;6.13;;;12.50;99.90;;;;;;4983249;28;88918;-32
2023/05/10 05:57:42;;;;;;;10.07;7.30;;;12.60;99.90;;;;;;4990296;28;89425;-32
2023/05/10 06:00:08;;;;;;;9.07;6.75;;;12.60;99.90;;;;;;4972803;28;89437;-32
2023/05/10 06:02:33;;;;;;;9.18;6.53;;;12.60;99.90;;;;;;4964098;28;90180;-31
2023/05/10 06:04:59;;;;;;;9.02;7.10;;;12.60;99.90;;;;;;4979662;28;88685;-36
2023/05/10 06:07:25;;;;;;;8.57;7.15;;;12.60;99.90;;;;;;4973218;28;89872;-30
2023/05/10 06:09:51;;;;;;;9.45;6.57;;;12.60;99.90;;;;;;4971732;28;89764;-33
2023/05/10 06:12:16;;;;;;;9.30;6.60;;;12.60;99.90;;;;;;4981757;28;89465;-34
2023/05/10 06:14:42;;;;;;;10.25;7.40;;;12.60;99.90;;;;;;4970329;28;89247;-30
2023/05/10 06:17:07;;;;;;;8.32;7.43;;;12.60;99.90;;;;;;4964442;28;90249;-34
2023/05/10 06:19:33;;;;;;;11.95;7.47;;;12.60;99.90;;;;;;4983997;28;89624;-32
2023/05/10 06:21:59;;;;;;;7.38;6.45;;;12.60;99.90;;;;;;4975279;28;89809;-37
2023/05/10 06:24:24;;;;;;;10.65;7.07;;;12.60;99.90;;;;;;4982726;28;89061;-33
2023/05/10 06:26:50;;;;;;;13.55;6.63;;;12.60;99.90;;;;;;4999363;28;90385;-34
2023/05/10 06:29:15;;;;;;;9.48;7.05;;;12.50;99.90;;;;;;4977755;28;88929;-34
2023/05/10 06:31:41;;;;;;;8.55;7.38;;;12.50;99.90;;;;;;4965670;28;89507;-30
2023/05/10 06:34:07;;;;;;;12.15;7.97;;;12.50;99.90;;;;;;4968865;28;89299;-35
2023/05/10 06:36:33;;;;;;;8.90;6.45;;;12.50;99.90;;;;;;4960617;28;90380;-31
2023/05/10 06:38:59;;;;;;;8.40;7.35;;;12.50;99.90;;;;;;4960057;28;91077;-36
2023/05/10 06:41:24;;;;;;;9.95;6.68;;;12.50;99.90;;;;;;4960088;28;90482;-32
2023/05/10 06:43:50;;;;;;;7.97;6.75;;;12.50;99.90;;;;;;4960586;28;89585;-32
2023/05/10 06:46:16;;;;;;;12.52;8.70;;;12.50;99.90;;;;;;4992070;28;90009;-33
2023/05/10 06:48:41;;;;;;;8.93;7.25;;;12.50;99.90;;;;;;4992309;28;89075;-34
2023/05/10 06:51:07;;;;;;;11.48;8.80;;;12.50;99.90;;;;;;4999220;28;88245;-36
2023/05/10 06:53:32;;;;;;;8.57;7.68;;;12.50;99.90;;;;;;5000008;28;89804;-31
2023/05/10 06:55:58;;;;;;;9.98;6.90;;;12.50;99.90;;;;;;4987894;28;90703;-33
2023/05/10 06:58:24;;;;;;;11.00;7.60;;;12.50;99.90;;;;;;4959780;28;89720;-31
2023/05/10 07:00:50;;;;;;;6.20;5.40;;;12.50;99.90;;;;;;4960192;28;89042;-34
2023/05/10 07:03:16;;;;;;;12.25;6.82;;;12.50;99.90;;;;;;4959934;28;88914;-33
2023/05/10 07:05:42;;;;;;;9.55;6.03;;;12.50;99.90;;;;;;4976906;28;90178;-32
2023/05/10 07:08:08;;;;;;;8.98;5.93;;;12.50;99.90;;;;;;4968065;28;89640;-36
2023/05/10 07:10:33;;;;;;;8.38;6.32;;;12.50;99.90;;;;;;4972498;28;89499;-33
2023/05/10 07:13:01;;;;;;;8.90;6.38;;;12.60;99.90;;;;;;4968899;28;89596;-32
2023/05/10 07:15:26;;;;;;;6.50;5.47;;;12.60;99.90;;;;;;4975587;28;90174;-34
2023/05/10 07:17:52;;;;;;;6.35;4.60;;;12.60;99.90;;;;;;4980014;28;90700;-35
2023/05/10 07:20:18;;;;;;;5.47;4.85;;;12.60;99.90;;;;;;4986107;28;89684;-33
2023/05/10 07:22:43;;;;;;;7.85;5.03;;;12.60;99.90;;;;;;4999892;28;88584;-34
2023/05/10 07:25:09;;;;;;;7.90;5.57;;;12.70;99.90;;;;;;4997700;28;90341;-36
2023/05/10 07:27:35;;;;;;;8.10;5.28;;;12.80;99.90;;;;;;4998712;28;90813;-33
2023/05/10 07:30:01;;;;;;;5.30;4.65;;;12.80;99.90;;;;;;4997561;28;90384;-31
2023/05/10 07:32:27;;;;;;;6.57;4.40;;;12.80;99.90;;;;;;4967754;28;88279;-34
2023/05/10 07:34:52;;;;;;;10.13;5.20;;;12.80;99.90;;;;;;4975278;28;90378;-32
2023/05/10 07:37:18;;;;;;;6.93;4.35;;;12.80;99.90;;;;;;4974466;28;89813;-32
2023/05/10 07:39:43;;;;;;;6.22;5.05;;;12.80;99.90;;;;;;4976607;28;88971;-33
2023/05/10 07:42:09;;;;;;;5.65;5.07;;;12.90;99.90;;;;;;4967710;28;89190;-33
2023/05/10 07:44:35;;;;;;;5.90;4.43;;;12.90;99.90;;;;;;4975094;28;90336;-33
2023/05/10 07:47:00;;;;;;;7.60;5.03;;;12.90;99.90;;;;;;4967820;28;91064;-31
2023/05/10 07:49:26;;;;;;;4.78;4.00;;;13.00;99.90;;;;;;4976566;28;89506;-33
2023/05/10 07:51:51;;;;;;;5.40;4.55;;;13.00;99.90;;;;;;4975676;28;90051;-32
2023/05/10 07:54:17;;;;;;;6.85;5.03;;;13.10;99.90;;;;;;4976503;28;90273;-31
2023/05/10 07:56:47;;;;;;;5.43;4.38;;;13.00;99.90;;;;;;4968405;28;90386;-33
2023/05/10 07:59:18;;;;;;;5.97;5.13;;;13.10;99.90;;;;;;4981395;28;89849;-33
2023/05/10 08:01:45;;;;;;;5.05;4.53;;;13.20;99.90;;;;;;4980332;28;88623;-31
2023/05/10 08:04:11;;;;;;;5.65;4.30;;;13.10;99.90;;;;;;4993233;28;90414;-34
2023/05/10 08:06:37;;;;;;;5.82;5.03;;;13.20;99.90;;;;;;4993515;28;89654;-32
2023/05/10 08:09:02;;;;;;;6.03;4.47;;;13.10;99.90;;;;;;4993769;28;90213;-35
2023/05/10 08:11:28;;;;;;;4.75;4.28;;;13.20;99.90;;;;;;4993238;28;89026;-33
2023/05/10 08:13:54;;;;;;;6.45;4.22;;;13.20;99.90;;;;;;4993958;28;90991;-36
2023/05/10 08:16:20;;;;;;;4.93;4.40;;;13.20;99.90;;;;;;4993455;28;90931;-32
2023/05/10 08:18:46;;;;;;;4.82;4.05;;;13.20;99.90;;;;;;4988699;28;89886;-33
2023/05/10 08:21:13;;;;;;;4.35;3.90;;;13.30;99.90;;;;;;4986532;28;89030;-36
2023/05/10 08:23:39;;;;;;;5.03;3.58;;;13.30;99.90;;;;;;4979123;28;90409;-33
2023/05/10 08:26:05;;;;;;;3.95;3.53;;;13.40;99.90;;;;;;4986143;28;90024;-33
2023/05/10 08:28:30;;;;;;;5.35;3.33;;;13.50;99.90;;;;;;4978601;28;89304;-32
2023/05/10 08:30:56;;;;;;;5.00;3.38;;;13.40;99.90;;;;;;4979222;28;89127;-34
2023/05/10 08:33:22;;;;;;;7.38;3.22;;;13.50;99.90;;;;;;4978479;28;90883;-31
2023/05/10 08:35:47;;;;;;;3.03;2.72;;;13.60;99.90;;;;;;4981061;28;88992;-32
2023/05/10 08:38:13;;;;;;;3.70;2.70;;;13.60;99.90;;;;;;4980957;28;89597;-31
2023/05/10 08:40:42;;;;;;;4.20;3.38;;;13.60;99.90;;;;;;4987961;28;88942;-34
2023/05/10 08:43:15;;;;;;;3.50;2.63;;;13.80;99.90;;;;;;4976635;28;89747;-32
2023/05/10 08:45:42;;;;;;;2.97;2.42;;;13.70;99.90;;;;;;4982505;28;90002;-33
2023/05/10 08:48:10;;;;;;;3.13;2.17;;;13.70;99.90;;;;;;4981699;28;90316;-34
2023/05/10 08:50:46;;;;;;;2.65;2.25;;;13.60;99.90;;;;;;4982204;28;89654;-35
2023/05/10 08:53:13;;;;;;;2.90;2.63;;;13.70;99.90;;;;;;4980820;28;90075;-35
2023/05/10 08:55:41;;;;;;;6.72;2.80;;;13.70;99.90;;;;;;4981380;28;89574;-36
2023/05/10 08:58:08;;;;;;;2.67;2.42;;;13.70;99.90;;;;;;4979475;28;88306;-33
2023/05/10 09:00:35;;;;;;;4.00;2.47;;;13.70;99.90;;;;;;4960969;28;88494;-32
2023/05/10 09:03:02;;;;;;;2.20;2.08;;;13.80;99.90;;;;;;4961317;28;90234;-30
2023/05/10 09:05:28;;;;;;;3.17;2.23;;;13.80;99.90;;;;;;4960545;28;90912;-33
2023/05/10 09:07:53;;;;;;;1.98;1.70;;;14.00;99.90;;;;;;4962404;28;91719;-32
2023/05/10 09:10:20;;;;;;;2.47;2.28;;;14.10;99.90;;;;;;4960980;28;88799;-33
2023/05/10 09:12:46;;;;;;;4.53;3.33;;;14.20;99.90;;;;;;4975702;28;91374;-34
2023/05/10 09:15:15;;;;;;;2.47;2.28;;;14.30;99.90;;;;;;4960087;28;91083;-34
2023/05/10 09:17:42;;;;;;;2.65;2.42;;;14.30;99.90;;;;;;4966946;28;89782;-33
2023/05/10 09:20:08;;;;;;;3.10;2.80;;;14.50;99.90;;;;;;4983699;28;89440;-31
2023/05/10 09:22:34;;;;;;;3.28;2.40;;;14.50;99.90;;;;;;4998317;28;89004;-30
2023/05/10 09:25:08;;;;;;;2.78;2.58;;;14.40;99.90;;;;;;4996332;28;89241;-32
2023/05/10 09:27:35;;;;;;;4.40;2.80;;;14.40;99.90;;;;;;4998458;28;89858;-35
2023/05/10 09:30:02;;;;;;;2.47;2.10;;;14.30;99.90;;;;;;4996278;28;89931;-33
2023/05/10 09:32:41;;;;;;;3.10;2.40;;;14.30;99.90;;;;;;4969355;28;89901;-32
2023/05/10 09:35:15;;;;;;;3.45;2.67;;;14.30;99.90;;;;;;4971654;28;89903;-34
2023/05/10 09:37:41;;;;;;;3.22;2.90;;;14.20;99.90;;;;;;4968141;28;90060;-31
2023/05/10 09:40:10;;;;;;;3.58;2.42;;;14.20;99.90;;;;;;4970211;28;88879;-35
2023/05/10 09:42:36;;;;;;;3.30;2.85;;;14.10;99.90;;;;;;4968457;28;90470;-34
2023/05/10 09:45:06;;;;;;;4.05;3.05;;;14.10;99.90;;;;;;4965484;28;89325;-35
2023/05/10 09:47:33;;;;;;;5.38;2.28;;;14.10;99.90;;;;;;4970044;28;91766;-33
2023/05/10 09:50:03;;;;;;;3.13;2.83;;;14.10;99.90;;;;;;4966575;28;89740;-33
2023/05/10 09:52:30;;;;;;;5.95;3.58;;;14.10;99.90;;;;;;4965629;28;90310;-33
2023/05/10 09:54:56;;;;;;;5.25;2.85;;;14.20;99.90;;;;;;4980565;28;91755;-34
2023/05/10 09:57:24;;;;;;;2.40;2.20;;;14.30;99.90;;;;;;4983195;28;89993;-35
2023/05/10 09:59:50;;;;;;;2.53;2.28;;;14.40;99.90;;;;;;4977865;28;87736;-33
2023/05/10 10:02:16;;;;;;;2.63;2.42;;;14.50;99.90;;;;;;4977329;28;90191;-31
2023/05/10 10:04:43;;;;;;;2.40;2.17;;;14.60;99.90;;;;;;4966761;28;89153;-32
2023/05/10 10:07:09;;;;;;;3.72;2.70;;;14.80;99.90;;;;;;4982488;28;89933;-35
2023/05/10 10:09:35;;;;;;;1.88;1.77;;;15.00;99.90;;;;;;4972606;28;89337;-31
2023/05/10 10:12:02;;;;;;;2.72;2.53;;;15.10;99.90;;;;;;4975373;28;89658;-32
2023/05/10 10:14:29;;;;;;;3.35;3.05;;;15.20;99.90;;;;;;4967939;28;90128;-33
2023/05/10 10:16:55;;;;;;;3.33;2.55;;;15.20;99.90;;;;;;4974895;28;89854;-36
2023/05/10 10:19:21;;;;;;;6.05;2.95;;;15.20;99.90;;;;;;4983087;28;88825;-32
2023/05/10 10:21:50;;;;;;;3.92;2.88;;;15.10;99.90;;;;;;4977372;28;89891;-35
2023/05/10 10:24:16;;;;;;;5.72;4.28;;;15.00;99.90;;;;;;4967904;28;89324;-33
2023/05/10 10:26:42;;;;;;;5.50;5.00;;;15.00;99.90;;;;;;4964381;28;89415;-32
2023/05/10 10:29:31;;;;;;;5.85;4.78;;;15.00;99.90;;;;;;4998096;28;88736;-31
2023/05/10 10:32:27;;;;;;;8.60;5.53;;;14.80;99.90;;;;;;4972591;28;89847;-35
2023/05/10 10:34:55;;;;;;;7.15;5.35;;;14.90;99.90;;;;;;4943078;28;89947;-33
2023/05/10 10:37:20;;;;;;;7.77;5.30;;;14.80;99.90;;;;;;4997305;28;89966;-34
2023/05/10 10:39:49;;;;;;;11.73;6.40;;;14.80;99.90;;;;;;4996779;28;89453;-36
2023/05/10 10:42:44;;;;;;;10.52;6.20;;;14.80;99.90;;;;;;4972666;28;90615;-32
2023/05/10 10:45:13;;;;;;;8.35;5.93;;;14.70;99.90;;;;;;4957120;28;90334;-33
2023/05/10 10:47:39;;;;;;;6.57;5.43;;;14.80;99.90;;;;;;4958936;28;90478;-31
2023/05/10 10:50:07;;;;;;;8.65;5.32;;;14.80;99.90;;;;;;4968583;28;89676;-33
2023/05/10 10:52:39;;;;;;;;;;;14.90;99.90;;;;;;4961166;28;88865;-36
2023/05/10 10:55:12;;;;;;;5.75;4.50;;;14.90;99.90;;;;;;4959057;28;89090;-32
2023/05/10 10:57:41;;;;;;;5.90;5.35;;;15.10;99.90;;;;;;4971006;28;89390;-35
2023/05/10 11:00:21;;;;;;;7.38;5.47;;;15.10;99.90;;;;;;4972548;28;89520;-34
2023/05/10 11:02:49;;;;;;;5.25;4.55;;;15.20;99.90;;;;;;4981516;28;90270;-32
2023/05/10 11:05:37;;;;;;;6.00;5.18;;;15.10;99.90;;;;;;4977176;28;90130;-32
2023/05/10 11:08:13;;;;;;;5.25;3.90;;;15.00;99.90;;;;;;4974169;28;90096;-35
2023/05/10 11:10:40;;;;;;;13.30;4.90;;;15.00;99.90;;;;;;4970575;28;89266;-32
2023/05/10 11:13:08;;;;;;;4.60;4.18;;;15.10;99.90;;;;;;4973870;28;89457;-37
2023/05/10 11:15:47;;;;;;;4.50;4.10;;;15.10;99.90;;;;;;4987959;28;89523;-32
2023/05/10 11:18:21;;;;;;;4.45;3.92;;;15.10;99.90;;;;;;4981919;28;89927;-33
2023/05/10 11:20:59;;;;;;;5.28;3.70;;;15.10;99.90;;;;;;4969613;28;89967;-33
2023/05/10 11:23:47;;;;;;;6.90;4.15;;;15.10;99.90;;;;;;4972267;28;90087;-32
2023/05/10 11:26:13;;;;;;;3.67;3.25;;;15.10;99.90;;;;;;4965881;28;90220;-36
2023/05/10 11:28:46;;;;;;;3.47;3.17;;;15.10;99.90;;;;;;4978570;28;89012;-33
2023/05/10 11:31:19;;;;;;;3.05;2.85;;;15.00;99.90;;;;;;4978160;28;89038;-32
2023/05/10 11:33:47;;;;;;;4.88;3.72;;;15.00;99.90;;;;;;4973939;28;90134;-32
2023/05/10 11:36:16;;;;;;;4.10;3.47;;;15.00;99.90;;;;;;4970878;28;90833;-33
2023/05/10 11:38:42;;;;;;;5.15;3.17;;;15.00;99.90;;;;;;4976194;28;90705;-33
2023/05/10 11:41:10;;;;;;;4.32;3.42;;;15.00;99.90;;;;;;4977472;28;87528;-33
2023/05/10 11:43:38;;;;;;;3.83;3.50;;;15.10;99.90;;;;;;4970019;28;90119;-33
2023/05/10 11:46:05;;;;;;;4.28;3.88;;;15.10;99.90;;;;;;4973877;28;89585;-33
2023/05/10 11:48:30;;;;;;;4.90;3.35;;;15.10;99.90;;;;;;4974576;28;88989;-33
2023/05/10 11:50:57;;;;;;;4.05;3.10;;;15.00;99.90;;;;;;4986857;28;88805;-32
2023/05/10 11:53:25;;;;;;;3.78;3.45;;;15.00;99.90;;;;;;4973695;28;89864;-35
2023/05/10 11:55:51;;;;;;;4.63;3.60;;;15.00;99.90;;;;;;4985574;28;89745;-34
2023/05/10 11:58:18;;;;;;;6.97;4.20;;;15.00;99.90;;;;;;4971593;28;91017;-34
2023/05/10 12:00:45;;;;;;;7.00;4.78;;;15.00;99.90;;;;;;4975688;28;89433;-32
2023/05/10 12:03:11;;;;;;;4.85;4.00;;;14.90;99.90;;;;;;4971543;28;91770;-33
2023/05/10 12:05:37;;;;;;;4.70;3.85;;;14.90;99.90;;;;;;4987148;28;90151;-36
2023/05/10 12:08:15;;;;;;;4.13;3.75;;;15.00;99.90;;;;;;4971280;28;90064;-32
2023/05/10 12:10:41;;;;;;;5.03;3.85;;;14.90;99.90;;;;;;4970047;28;88946;-30
2023/05/10 12:13:15;;;;;;;5.38;4.03;;;15.00;99.90;;;;;;4971667;28;89198;-34
2023/05/10 12:15:41;;;;;;;4.05;3.65;;;15.00;99.90;;;;;;4980375;28;89081;-33
2023/05/10 12:18:11;;;;;;;4.75;3.90;;;15.00;99.90;;;;;;4987059;28;90421;-34
2023/05/10 12:20:37;;;;;;;4.93;3.92;;;15.00;99.90;;;;;;4962647;28;89204;-35
2023/05/10 12:23:03;;;;;;;7.60;3.72;;;15.10;99.90;;;;;;4988577;28;90756;-36
2023/05/10 12:25:33;;;;;;;6.97;4.25;;;15.10;99.90;;;;;;4969212;28;92148;-33
2023/05/10 12:28:03;;;;;;;7.63;5.07;;;15.20;99.90;;;;;;4995433;28;89989;-34
2023/05/10 12:30:31;;;;;;;6.25;4.43;;;15.20;99.90;;;;;;4988266;28;88721;-32
2023/05/10 12:33:07;;;;;;;4.10;3.42;;;15.30;99.90;;;;;;4986612;28;90175;-34
2023/05/10 12:35:32;;;;;;;4.30;2.88;;;15.30;99.90;;;;;;4956652;28;89646;-34
2023/05/10 12:37:58;;;;;;;4.40;3.60;;;15.40;99.90;;;;;;4957370;28;91273;-33
2023/05/10 12:40:24;;;;;;;5.07;4.50;;;15.40;99.90;;;;;;4956684;28;89218;-31
2023/05/10 12:42:50;;;;;;;4.38;2.90;;;15.50;99.90;;;;;;4956620;28;90572;-33
2023/05/10 12:45:17;;;;;;;6.47;4.07;;;15.40;99.90;;;;;;4955847;28;89528;-31
2023/05/10 12:47:43;;;;;;;4.83;3.27;;;15.40;99.90;;;;;;4956219;28;89394;-34
2023/05/10 12:50:10;;;;;;;4.28;3.85;;;15.40;99.90;;;;;;4967343;28;89470;-32